sensor_id;sensor_type;location;lat;lon;timestamp;temperature;humidity
13164;DHT22;6647;53.688;10.746;2023-04-24T00:00:05;13.50;99.90
13164;DHT22;6647;53.688;10.746;2023-04-24T00:01:26;13.50;99.90
13164;DHT22;6647;53.688;10.746;2023-04-24T00:02:47;13.50;99.90
13164;DHT22;6647;53.688;10.746;2023-04-24T00:04:08;13.50;99.90
13164;DHT22;6647;53.688;10.746;2023-04-24T00:05:31;13.50;99.90
13164;DHT22;6647;53.688;10.746;2023-04-24T00:06:52;13.40;99.90
13164;DHT22;6647;53.688;10.746;2023-04-24T00:08:18;13.50;99.90
13164;DHT22;6647;53.688;10.746;2023-04-24T00:09:39;13.40;99.90
13164;DHT22;6647;53.688;10.746;2023-04-24T00:11:00;13.40;99.90
13164;DHT22;6647;53.688;10.746;2023-04-24T00:12:21;13.40;99.90
13164;DHT22;6647;53.688;10.746;2023-04-24T00:13:41;13.40;99.90
13164;DHT22;6647;53.688;10.746;2023-04-24T00:15:03;13.40;99.90
13164;DHT22;6647;53.688;10.746;2023-04-24T00:16:24;13.40;99.90
13164;DHT22;6647;53.688;10.746;2023-04-24T00:17:45;13.40;99.90
13164;DHT22;6647;53.688;10.746;2023-04-24T00:19:06;13.40;99.90
13164;DHT22;6647;53.688;10.746;2023-04-24T00:20:28;13.50;99.90
13164;DHT22;6647;53.688;10.746;2023-04-24T00:21:53;13.50;99.90
13164;DHT22;6647;53.688;10.746;2023-04-24T00:23:14;13.50;99.90
13164;DHT22;6647;53.688;10.746;2023-04-24T00:24:35;13.50;99.90
13164;DHT22;6647;53.688;10.746;2023-04-24T00:25:56;13.40;99.90
13164;DHT22;6647;53.688;10.746;2023-04-24T00:27:17;13.40;99.90
13164;DHT22;6647;53.688;10.746;2023-04-24T00:28:37;13.40;99.90
13164;DHT22;6647;53.688;10.746;2023-04-24T00:29:58;13.30;99.90
13164;DHT22;6647;53.688;10.746;2023-04-24T00:31:19;13.30;99.90
13164;DHT22;6647;53.688;10.746;2023-04-24T00:32:40;13.30;99.90
13164;DHT22;6647;53.688;10.746;2023-04-24T00:34:02;13.30;99.90
13164;DHT22;6647;53.688;10.746;2023-04-24T00:35:23;13.30;99.90
13164;DHT22;6647;53.688;10.746;2023-04-24T00:36:44;13.20;99.90
13164;DHT22;6647;53.688;10.746;2023-04-24T00:38:05;13.20;99.90
13164;DHT22;6647;53.688;10.746;2023-04-24T00:39:26;13.20;99.90
13164;DHT22;6647;53.688;10.746;2023-04-24T00:40:47;13.20;99.90
13164;DHT22;6647;53.688;10.746;2023-04-24T00:42:08;13.20;99.90
13164;DHT22;6647;53.688;10.746;2023-04-24T00:43:29;13.20;99.90
13164;DHT22;6647;53.688;10.746;2023-04-24T00:44:51;13.10;99.90
13164;DHT22;6647;53.688;10.746;2023-04-24T00:46:12;13.10;99.90
13164;DHT22;6647;53.688;10.746;2023-04-24T00:47:34;13.10;99.90
13164;DHT22;6647;53.688;10.746;2023-04-24T00:48:56;13.10;99.90
13164;DHT22;6647;53.688;10.746;2023-04-24T00:50:17;13.10;99.90
13164;DHT22;6647;53.688;10.746;2023-04-24T00:51:38;13.10;99.90
13164;DHT22;6647;53.688;10.746;2023-04-24T00:53:01;13.10;99.90
13164;DHT22;6647;53.688;10.746;2023-04-24T00:54:22;13.10;99.90
13164;DHT22;6647;53.688;10.746;2023-04-24T00:55:43;13.10;99.90
13164;DHT22;6647;53.688;10.746;2023-04-24T00:57:04;13.00;99.90
13164;DHT22;6647;53.688;10.746;2023-04-24T00:58:25;13.00;99.90
13164;DHT22;6647;53.688;10.746;2023-04-24T00:59:46;12.90;99.90
13164;DHT22;6647;53.688;10.746;2023-04-24T01:01:07;12.90;99.90
13164;DHT22;6647;53.688;10.746;2023-04-24T01:02:29;12.90;99.90
13164;DHT22;6647;53.688;10.746;2023-04-24T01:03:51;12.80;99.90
13164;DHT22;6647;53.688;10.746;2023-04-24T01:05:14;12.80;99.90
13164;DHT22;6647;53.688;10.746;2023-04-24T01:06:40;12.80;99.90
13164;DHT22;6647;53.688;10.746;2023-04-24T01:08:02;12.80;99.90
13164;DHT22;6647;53.688;10.746;2023-04-24T01:09:23;12.80;99.90
13164;DHT22;6647;53.688;10.746;2023-04-24T01:10:45;12.80;99.90
13164;DHT22;6647;53.688;10.746;2023-04-24T01:12:07;12.80;99.90
13164;DHT22;6647;53.688;10.746;2023-04-24T01:13:28;12.80;99.90
13164;DHT22;6647;53.688;10.746;2023-04-24T01:14:49;12.70;99.90
13164;DHT22;6647;53.688;10.746;2023-04-24T01:16:10;12.70;99.90
13164;DHT22;6647;53.688;10.746;2023-04-24T01:17:31;12.70;99.90
13164;DHT22;6647;53.688;10.746;2023-04-24T01:18:53;12.70;99.90
13164;DHT22;6647;53.688;10.746;2023-04-24T01:20:14;12.70;99.90
13164;DHT22;6647;53.688;10.746;2023-04-24T01:21:36;12.70;99.90
13164;DHT22;6647;53.688;10.746;2023-04-24T01:22:57;12.70;99.90
13164;DHT22;6647;53.688;10.746;2023-04-24T01:24:19;12.70;99.90
13164;DHT22;6647;53.688;10.746;2023-04-24T01:25:40;12.70;99.90
13164;DHT22;6647;53.688;10.746;2023-04-24T01:27:01;12.70;99.90
13164;DHT22;6647;53.688;10.746;2023-04-24T01:28:22;12.70;99.90
13164;DHT22;6647;53.688;10.746;2023-04-24T01:29:43;12.70;99.90
13164;DHT22;6647;53.688;10.746;2023-04-24T01:31:04;12.70;99.90
13164;DHT22;6647;53.688;10.746;2023-04-24T01:32:25;12.70;99.90
13164;DHT22;6647;53.688;10.746;2023-04-24T01:33:47;12.60;99.90
13164;DHT22;6647;53.688;10.746;2023-04-24T01:35:08;12.60;99.90
13164;DHT22;6647;53.688;10.746;2023-04-24T01:36:30;12.60;99.90
13164;DHT22;6647;53.688;10.746;2023-04-24T01:37:52;12.50;99.90
13164;DHT22;6647;53.688;10.746;2023-04-24T01:39:13;12.50;99.90
13164;DHT22;6647;53.688;10.746;2023-04-24T01:40:35;12.50;99.90
13164;DHT22;6647;53.688;10.746;2023-04-24T01:41:56;12.50;99.90
13164;DHT22;6647;53.688;10.746;2023-04-24T01:43:17;12.50;99.90
13164;DHT22;6647;53.688;10.746;2023-04-24T01:44:38;12.50;99.90
13164;DHT22;6647;53.688;10.746;2023-04-24T01:46:00;12.50;99.90
13164;DHT22;6647;53.688;10.746;2023-04-24T01:47:21;12.50;99.90
13164;DHT22;6647;53.688;10.746;2023-04-24T01:48:42;12.50;99.90
13164;DHT22;6647;53.688;10.746;2023-04-24T01:50:05;12.50;99.90
13164;DHT22;6647;53.688;10.746;2023-04-24T01:51:26;12.40;99.90
13164;DHT22;6647;53.688;10.746;2023-04-24T01:52:47;12.40;99.90
13164;DHT22;6647;53.688;10.746;2023-04-24T01:54:08;12.40;99.90
13164;DHT22;6647;53.688;10.746;2023-04-24T01:55:29;12.40;99.90
13164;DHT22;6647;53.688;10.746;2023-04-24T01:56:50;12.40;99.90
13164;DHT22;6647;53.688;10.746;2023-04-24T01:58:11;12.40;99.90
13164;DHT22;6647;53.688;10.746;2023-04-24T01:59:33;12.40;99.90
13164;DHT22;6647;53.688;10.746;2023-04-24T02:00:56;12.30;99.90
13164;DHT22;6647;53.688;10.746;2023-04-24T02:02:19;12.30;99.90
13164;DHT22;6647;53.688;10.746;2023-04-24T02:03:41;12.30;99.90
13164;DHT22;6647;53.688;10.746;2023-04-24T02:05:03;12.30;99.90
13164;DHT22;6647;53.688;10.746;2023-04-24T02:06:26;12.30;99.90
13164;DHT22;6647;53.688;10.746;2023-04-24T02:07:47;12.30;99.90
13164;DHT22;6647;53.688;10.746;2023-04-24T02:09:07;12.30;99.90
13164;DHT22;6647;53.688;10.746;2023-04-24T02:10:28;12.30;99.90
13164;DHT22;6647;53.688;10.746;2023-04-24T02:11:49;12.20;99.90
13164;DHT22;6647;53.688;10.746;2023-04-24T02:13:10;12.20;99.90
13164;DHT22;6647;53.688;10.746;2023-04-24T02:14:31;12.20;99.90
13164;DHT22;6647;53.688;10.746;2023-04-24T02:15:52;12.20;99.90
13164;DHT22;6647;53.688;10.746;2023-04-24T02:17:13;12.20;99.90
13164;DHT22;6647;53.688;10.746;2023-04-24T02:18:34;12.20;99.90
13164;DHT22;6647;53.688;10.746;2023-04-24T02:19:55;12.20;99.90
13164;DHT22;6647;53.688;10.746;2023-04-24T02:21:16;12.20;99.90
13164;DHT22;6647;53.688;10.746;2023-04-24T02:22:37;12.10;99.90
13164;DHT22;6647;53.688;10.746;2023-04-24T02:23:58;12.20;99.90
13164;DHT22;6647;53.688;10.746;2023-04-24T02:25:19;12.20;99.90
13164;DHT22;6647;53.688;10.746;2023-04-24T02:26:40;12.10;99.90
13164;DHT22;6647;53.688;10.746;2023-04-24T02:28:01;12.10;99.90
13164;DHT22;6647;53.688;10.746;2023-04-24T02:29:23;12.10;99.90
13164;DHT22;6647;53.688;10.746;2023-04-24T02:30:43;12.10;99.90
13164;DHT22;6647;53.688;10.746;2023-04-24T02:32:04;12.20;99.90
13164;DHT22;6647;53.688;10.746;2023-04-24T02:33:25;12.20;99.90
13164;DHT22;6647;53.688;10.746;2023-04-24T02:34:46;12.20;99.90
13164;DHT22;6647;53.688;10.746;2023-04-24T02:36:07;12.20;99.90
13164;DHT22;6647;53.688;10.746;2023-04-24T02:37:28;12.10;99.90
13164;DHT22;6647;53.688;10.746;2023-04-24T02:38:49;12.10;99.90
13164;DHT22;6647;53.688;10.746;2023-04-24T02:40:10;12.10;99.90
13164;DHT22;6647;53.688;10.746;2023-04-24T02:41:31;12.10;99.90
13164;DHT22;6647;53.688;10.746;2023-04-24T02:42:53;12.10;99.90
13164;DHT22;6647;53.688;10.746;2023-04-24T02:44:14;12.00;99.90
13164;DHT22;6647;53.688;10.746;2023-04-24T02:45:35;12.00;99.90
13164;DHT22;6647;53.688;10.746;2023-04-24T02:46:55;12.00;99.90
13164;DHT22;6647;53.688;10.746;2023-04-24T02:48:16;11.90;99.90
13164;DHT22;6647;53.688;10.746;2023-04-24T02:49:37;11.90;99.90
13164;DHT22;6647;53.688;10.746;2023-04-24T02:50:58;11.90;99.90
13164;DHT22;6647;53.688;10.746;2023-04-24T02:52:19;11.90;99.90
13164;DHT22;6647;53.688;10.746;2023-04-24T02:53:40;11.90;99.90
13164;DHT22;6647;53.688;10.746;2023-04-24T02:55:01;11.90;99.90
13164;DHT22;6647;53.688;10.746;2023-04-24T02:56:22;11.90;99.90
13164;DHT22;6647;53.688;10.746;2023-04-24T02:57:43;11.90;99.90
13164;DHT22;6647;53.688;10.746;2023-04-24T02:59:03;11.90;99.90
13164;DHT22;6647;53.688;10.746;2023-04-24T03:00:24;11.90;99.90
13164;DHT22;6647;53.688;10.746;2023-04-24T03:01:45;11.90;99.90
13164;DHT22;6647;53.688;10.746;2023-04-24T03:03:06;11.90;99.90
13164;DHT22;6647;53.688;10.746;2023-04-24T03:04:27;11.80;99.90
13164;DHT22;6647;53.688;10.746;2023-04-24T03:05:48;11.80;99.90
13164;DHT22;6647;53.688;10.746;2023-04-24T03:07:09;11.90;99.90
13164;DHT22;6647;53.688;10.746;2023-04-24T03:08:30;11.90;99.90
13164;DHT22;6647;53.688;10.746;2023-04-24T03:09:51;11.90;99.90
13164;DHT22;6647;53.688;10.746;2023-04-24T03:11:12;11.80;99.90
13164;DHT22;6647;53.688;10.746;2023-04-24T03:12:32;11.80;99.90
13164;DHT22;6647;53.688;10.746;2023-04-24T03:13:53;11.80;99.90
13164;DHT22;6647;53.688;10.746;2023-04-24T03:15:15;11.80;99.90
13164;DHT22;6647;53.688;10.746;2023-04-24T03:16:37;11.80;99.90
13164;DHT22;6647;53.688;10.746;2023-04-24T03:17:57;11.80;99.90
13164;DHT22;6647;53.688;10.746;2023-04-24T03:19:18;11.80;99.90
13164;DHT22;6647;53.688;10.746;2023-04-24T03:20:39;11.90;99.90
13164;DHT22;6647;53.688;10.746;2023-04-24T03:22:02;11.80;99.90
13164;DHT22;6647;53.688;10.746;2023-04-24T03:23:23;11.90;99.90
13164;DHT22;6647;53.688;10.746;2023-04-24T03:24:44;11.90;99.90
13164;DHT22;6647;53.688;10.746;2023-04-24T03:26:05;11.90;99.90
13164;DHT22;6647;53.688;10.746;2023-04-24T03:27:26;11.90;99.90
13164;DHT22;6647;53.688;10.746;2023-04-24T03:28:47;11.90;99.90
13164;DHT22;6647;53.688;10.746;2023-04-24T03:30:08;11.90;99.90
13164;DHT22;6647;53.688;10.746;2023-04-24T03:31:29;11.90;99.90
13164;DHT22;6647;53.688;10.746;2023-04-24T03:32:50;11.90;99.90
13164;DHT22;6647;53.688;10.746;2023-04-24T03:34:11;11.90;99.90
13164;DHT22;6647;53.688;10.746;2023-04-24T03:35:32;11.90;99.90
13164;DHT22;6647;53.688;10.746;2023-04-24T03:36:53;11.90;99.90
13164;DHT22;6647;53.688;10.746;2023-04-24T03:38:13;11.90;99.90
13164;DHT22;6647;53.688;10.746;2023-04-24T03:39:34;11.90;99.90
13164;DHT22;6647;53.688;10.746;2023-04-24T03:40:55;11.90;99.90
13164;DHT22;6647;53.688;10.746;2023-04-24T03:42:16;11.80;99.90
13164;DHT22;6647;53.688;10.746;2023-04-24T03:43:37;11.90;99.90
13164;DHT22;6647;53.688;10.746;2023-04-24T03:44:58;11.90;99.90
13164;DHT22;6647;53.688;10.746;2023-04-24T03:46:19;11.90;99.90
13164;DHT22;6647;53.688;10.746;2023-04-24T03:47:40;11.80;99.90
13164;DHT22;6647;53.688;10.746;2023-04-24T03:49:01;11.90;99.90
13164;DHT22;6647;53.688;10.746;2023-04-24T03:50:22;11.90;99.90
13164;DHT22;6647;53.688;10.746;2023-04-24T03:51:43;11.80;99.90
13164;DHT22;6647;53.688;10.746;2023-04-24T03:53:04;11.90;99.90
13164;DHT22;6647;53.688;10.746;2023-04-24T03:54:24;11.80;99.90
13164;DHT22;6647;53.688;10.746;2023-04-24T03:55:46;11.80;99.90
13164;DHT22;6647;53.688;10.746;2023-04-24T03:57:07;11.80;99.90
13164;DHT22;6647;53.688;10.746;2023-04-24T03:58:27;11.80;99.90
13164;DHT22;6647;53.688;10.746;2023-04-24T03:59:51;11.80;99.90
13164;DHT22;6647;53.688;10.746;2023-04-24T04:01:14;11.80;99.90
13164;DHT22;6647;53.688;10.746;2023-04-24T04:02:36;11.80;99.90
13164;DHT22;6647;53.688;10.746;2023-04-24T04:03:57;11.80;99.90
13164;DHT22;6647;53.688;10.746;2023-04-24T04:05:18;11.80;99.90
13164;DHT22;6647;53.688;10.746;2023-04-24T04:06:39;11.80;99.90
13164;DHT22;6647;53.688;10.746;2023-04-24T04:08:00;11.80;99.90
13164;DHT22;6647;53.688;10.746;2023-04-24T04:09:20;11.70;99.90
13164;DHT22;6647;53.688;10.746;2023-04-24T04:10:41;11.70;99.90
13164;DHT22;6647;53.688;10.746;2023-04-24T04:12:02;11.70;99.90
13164;DHT22;6647;53.688;10.746;2023-04-24T04:13:23;11.70;99.90
13164;DHT22;6647;53.688;10.746;2023-04-24T04:14:44;11.60;99.90
13164;DHT22;6647;53.688;10.746;2023-04-24T04:16:05;11.60;99.90
13164;DHT22;6647;53.688;10.746;2023-04-24T04:17:26;11.60;99.90
13164;DHT22;6647;53.688;10.746;2023-04-24T04:18:47;11.50;99.90
13164;DHT22;6647;53.688;10.746;2023-04-24T04:20:08;11.50;99.90
13164;DHT22;6647;53.688;10.746;2023-04-24T04:21:32;11.50;99.90
13164;DHT22;6647;53.688;10.746;2023-04-24T04:22:53;11.50;99.90
13164;DHT22;6647;53.688;10.746;2023-04-24T04:24:14;11.60;99.90
13164;DHT22;6647;53.688;10.746;2023-04-24T04:25:35;11.50;99.90
13164;DHT22;6647;53.688;10.746;2023-04-24T04:26:55;11.50;99.90
13164;DHT22;6647;53.688;10.746;2023-04-24T04:28:18;11.50;99.90
13164;DHT22;6647;53.688;10.746;2023-04-24T04:29:40;11.50;99.90
13164;DHT22;6647;53.688;10.746;2023-04-24T04:31:01;11.50;99.90
13164;DHT22;6647;53.688;10.746;2023-04-24T04:32:22;11.50;99.90
13164;DHT22;6647;53.688;10.746;2023-04-24T04:33:43;11.50;99.90
13164;DHT22;6647;53.688;10.746;2023-04-24T04:35:04;11.50;99.90
13164;DHT22;6647;53.688;10.746;2023-04-24T04:36:25;11.50;99.90
13164;DHT22;6647;53.688;10.746;2023-04-24T04:37:46;11.50;99.90
13164;DHT22;6647;53.688;10.746;2023-04-24T04:39:07;11.50;99.90
13164;DHT22;6647;53.688;10.746;2023-04-24T04:40:28;11.50;99.90
13164;DHT22;6647;53.688;10.746;2023-04-24T04:41:50;11.50;99.90
13164;DHT22;6647;53.688;10.746;2023-04-24T04:43:11;11.50;99.90
13164;DHT22;6647;53.688;10.746;2023-04-24T04:44:33;11.40;99.90
13164;DHT22;6647;53.688;10.746;2023-04-24T04:45:58;11.40;99.90
13164;DHT22;6647;53.688;10.746;2023-04-24T04:47:21;11.50;99.90
13164;DHT22;6647;53.688;10.746;2023-04-24T04:48:45;11.40;99.90
13164;DHT22;6647;53.688;10.746;2023-04-24T04:50:06;11.40;99.90
13164;DHT22;6647;53.688;10.746;2023-04-24T04:51:27;11.40;99.90
13164;DHT22;6647;53.688;10.746;2023-04-24T04:52:48;11.40;99.90
13164;DHT22;6647;53.688;10.746;2023-04-24T04:54:09;11.40;99.90
13164;DHT22;6647;53.688;10.746;2023-04-24T04:55:30;11.40;99.90
13164;DHT22;6647;53.688;10.746;2023-04-24T04:56:50;11.40;99.90
13164;DHT22;6647;53.688;10.746;2023-04-24T04:58:11;11.40;99.90
13164;DHT22;6647;53.688;10.746;2023-04-24T04:59:32;11.30;99.90
13164;DHT22;6647;53.688;10.746;2023-04-24T05:00:53;11.30;99.90
13164;DHT22;6647;53.688;10.746;2023-04-24T05:02:14;11.30;99.90
13164;DHT22;6647;53.688;10.746;2023-04-24T05:03:35;11.30;99.90
13164;DHT22;6647;53.688;10.746;2023-04-24T05:04:56;11.30;99.90
13164;DHT22;6647;53.688;10.746;2023-04-24T05:06:17;11.30;99.90
13164;DHT22;6647;53.688;10.746;2023-04-24T05:07:38;11.30;99.90
13164;DHT22;6647;53.688;10.746;2023-04-24T05:08:58;11.30;99.90
13164;DHT22;6647;53.688;10.746;2023-04-24T05:10:19;11.30;99.90
13164;DHT22;6647;53.688;10.746;2023-04-24T05:11:40;11.40;99.90
13164;DHT22;6647;53.688;10.746;2023-04-24T05:13:01;11.40;99.90
13164;DHT22;6647;53.688;10.746;2023-04-24T05:14:22;11.40;99.90
13164;DHT22;6647;53.688;10.746;2023-04-24T05:15:43;11.40;99.90
13164;DHT22;6647;53.688;10.746;2023-04-24T05:17:04;11.30;99.90
13164;DHT22;6647;53.688;10.746;2023-04-24T05:18:25;11.30;99.90
13164;DHT22;6647;53.688;10.746;2023-04-24T05:19:46;11.40;99.90
13164;DHT22;6647;53.688;10.746;2023-04-24T05:21:07;11.40;99.90
13164;DHT22;6647;53.688;10.746;2023-04-24T05:22:27;11.40;99.90
13164;DHT22;6647;53.688;10.746;2023-04-24T05:23:48;11.40;99.90
13164;DHT22;6647;53.688;10.746;2023-04-24T05:25:09;11.40;99.90
13164;DHT22;6647;53.688;10.746;2023-04-24T05:26:30;11.40;99.90
13164;DHT22;6647;53.688;10.746;2023-04-24T05:27:51;11.40;99.90
13164;DHT22;6647;53.688;10.746;2023-04-24T05:29:13;11.40;99.90
13164;DHT22;6647;53.688;10.746;2023-04-24T05:30:34;11.40;99.90
13164;DHT22;6647;53.688;10.746;2023-04-24T05:31:56;11.40;99.90
13164;DHT22;6647;53.688;10.746;2023-04-24T05:33:17;11.40;99.90
13164;DHT22;6647;53.688;10.746;2023-04-24T05:34:38;11.40;99.90
13164;DHT22;6647;53.688;10.746;2023-04-24T05:35:59;11.40;99.90
13164;DHT22;6647;53.688;10.746;2023-04-24T05:37:19;11.40;99.90
13164;DHT22;6647;53.688;10.746;2023-04-24T05:38:41;11.40;99.90
13164;DHT22;6647;53.688;10.746;2023-04-24T05:40:02;11.50;99.90
13164;DHT22;6647;53.688;10.746;2023-04-24T05:41:25;11.50;99.90
13164;DHT22;6647;53.688;10.746;2023-04-24T05:42:45;11.50;99.90
13164;DHT22;6647;53.688;10.746;2023-04-24T05:44:06;11.50;99.90
13164;DHT22;6647;53.688;10.746;2023-04-24T05:45:27;11.50;99.90
13164;DHT22;6647;53.688;10.746;2023-04-24T05:46:48;11.50;99.90
13164;DHT22;6647;53.688;10.746;2023-04-24T05:48:09;11.50;99.90
13164;DHT22;6647;53.688;10.746;2023-04-24T05:49:30;11.50;99.90
13164;DHT22;6647;53.688;10.746;2023-04-24T05:50:51;11.60;99.90
13164;DHT22;6647;53.688;10.746;2023-04-24T05:52:13;11.60;99.90
13164;DHT22;6647;53.688;10.746;2023-04-24T05:53:34;11.60;99.90
13164;DHT22;6647;53.688;10.746;2023-04-24T05:54:54;11.50;99.90
13164;DHT22;6647;53.688;10.746;2023-04-24T05:56:16;11.60;99.90
13164;DHT22;6647;53.688;10.746;2023-04-24T05:57:37;11.60;99.90
13164;DHT22;6647;53.688;10.746;2023-04-24T05:58:58;11.60;99.90
13164;DHT22;6647;53.688;10.746;2023-04-24T06:00:19;11.60;99.90
13164;DHT22;6647;53.688;10.746;2023-04-24T06:01:40;11.60;99.90
13164;DHT22;6647;53.688;10.746;2023-04-24T06:03:01;11.60;99.90
13164;DHT22;6647;53.688;10.746;2023-04-24T06:04:24;11.60;99.90
13164;DHT22;6647;53.688;10.746;2023-04-24T06:05:45;11.70;99.90
13164;DHT22;6647;53.688;10.746;2023-04-24T06:07:06;11.70;99.90
13164;DHT22;6647;53.688;10.746;2023-04-24T06:08:27;11.70;99.90
13164;DHT22;6647;53.688;10.746;2023-04-24T06:09:48;11.70;99.90
13164;DHT22;6647;53.688;10.746;2023-04-24T06:11:08;11.70;99.90
13164;DHT22;6647;53.688;10.746;2023-04-24T06:12:29;11.80;99.90
13164;DHT22;6647;53.688;10.746;2023-04-24T06:13:51;11.80;99.90
13164;DHT22;6647;53.688;10.746;2023-04-24T06:15:12;11.80;99.90
13164;DHT22;6647;53.688;10.746;2023-04-24T06:16:33;11.80;99.90
13164;DHT22;6647;53.688;10.746;2023-04-24T06:17:54;11.80;99.90
13164;DHT22;6647;53.688;10.746;2023-04-24T06:19:15;11.90;99.90
13164;DHT22;6647;53.688;10.746;2023-04-24T06:20:36;11.90;99.90
13164;DHT22;6647;53.688;10.746;2023-04-24T06:21:57;11.90;99.90
13164;DHT22;6647;53.688;10.746;2023-04-24T06:23:18;11.90;99.90
13164;DHT22;6647;53.688;10.746;2023-04-24T06:24:41;12.00;99.90
13164;DHT22;6647;53.688;10.746;2023-04-24T06:26:02;12.00;99.90
13164;DHT22;6647;53.688;10.746;2023-04-24T06:27:23;12.00;99.90
13164;DHT22;6647;53.688;10.746;2023-04-24T06:28:44;12.00;99.90
13164;DHT22;6647;53.688;10.746;2023-04-24T06:30:06;12.00;99.90
13164;DHT22;6647;53.688;10.746;2023-04-24T06:31:27;12.00;99.90
13164;DHT22;6647;53.688;10.746;2023-04-24T06:32:48;12.10;99.90
13164;DHT22;6647;53.688;10.746;2023-04-24T06:34:09;12.10;99.90
13164;DHT22;6647;53.688;10.746;2023-04-24T06:35:30;12.10;99.90
13164;DHT22;6647;53.688;10.746;2023-04-24T06:36:51;12.10;99.90
13164;DHT22;6647;53.688;10.746;2023-04-24T06:38:12;12.20;99.90
13164;DHT22;6647;53.688;10.746;2023-04-24T06:39:33;12.20;99.90
13164;DHT22;6647;53.688;10.746;2023-04-24T06:40:53;12.20;99.90
13164;DHT22;6647;53.688;10.746;2023-04-24T06:42:15;12.20;99.90
13164;DHT22;6647;53.688;10.746;2023-04-24T06:43:36;12.30;99.90
13164;DHT22;6647;53.688;10.746;2023-04-24T06:44:56;12.30;99.90
13164;DHT22;6647;53.688;10.746;2023-04-24T06:46:17;12.30;99.90
13164;DHT22;6647;53.688;10.746;2023-04-24T06:47:38;12.30;99.90
13164;DHT22;6647;53.688;10.746;2023-04-24T06:49:00;12.30;99.90
13164;DHT22;6647;53.688;10.746;2023-04-24T06:50:21;12.30;99.90
13164;DHT22;6647;53.688;10.746;2023-04-24T06:51:42;12.40;99.90
13164;DHT22;6647;53.688;10.746;2023-04-24T06:53:03;12.40;99.90
13164;DHT22;6647;53.688;10.746;2023-04-24T06:54:24;12.40;99.90
13164;DHT22;6647;53.688;10.746;2023-04-24T06:55:45;12.40;99.90
13164;DHT22;6647;53.688;10.746;2023-04-24T06:57:06;12.40;99.90
13164;DHT22;6647;53.688;10.746;2023-04-24T06:58:27;12.50;99.90
13164;DHT22;6647;53.688;10.746;2023-04-24T06:59:48;12.50;99.90
13164;DHT22;6647;53.688;10.746;2023-04-24T07:01:10;12.50;99.90
13164;DHT22;6647;53.688;10.746;2023-04-24T07:02:31;12.60;99.90
13164;DHT22;6647;53.688;10.746;2023-04-24T07:03:52;12.60;99.90
13164;DHT22;6647;53.688;10.746;2023-04-24T07:05:13;12.60;99.90
13164;DHT22;6647;53.688;10.746;2023-04-24T07:06:35;12.60;99.90
13164;DHT22;6647;53.688;10.746;2023-04-24T07:07:57;12.60;99.90
13164;DHT22;6647;53.688;10.746;2023-04-24T07:09:18;12.60;99.90
13164;DHT22;6647;53.688;10.746;2023-04-24T07:10:39;12.60;99.90
13164;DHT22;6647;53.688;10.746;2023-04-24T07:12:00;12.70;99.90
13164;DHT22;6647;53.688;10.746;2023-04-24T07:13:21;12.70;99.90
13164;DHT22;6647;53.688;10.746;2023-04-24T07:14:43;12.70;99.90
13164;DHT22;6647;53.688;10.746;2023-04-24T07:16:04;12.70;99.90
13164;DHT22;6647;53.688;10.746;2023-04-24T07:17:25;12.70;99.90
13164;DHT22;6647;53.688;10.746;2023-04-24T07:18:46;12.70;99.90
13164;DHT22;6647;53.688;10.746;2023-04-24T07:20:07;12.80;99.90
13164;DHT22;6647;53.688;10.746;2023-04-24T07:21:31;12.80;99.90
13164;DHT22;6647;53.688;10.746;2023-04-24T07:22:52;12.80;99.90
13164;DHT22;6647;53.688;10.746;2023-04-24T07:24:14;12.80;99.90
13164;DHT22;6647;53.688;10.746;2023-04-24T07:25:35;12.80;99.90
13164;DHT22;6647;53.688;10.746;2023-04-24T07:26:56;12.80;99.90
13164;DHT22;6647;53.688;10.746;2023-04-24T07:28:17;12.80;99.90
13164;DHT22;6647;53.688;10.746;2023-04-24T07:29:38;12.90;99.90
13164;DHT22;6647;53.688;10.746;2023-04-24T07:31:00;12.90;99.90
13164;DHT22;6647;53.688;10.746;2023-04-24T07:32:21;12.90;99.90
13164;DHT22;6647;53.688;10.746;2023-04-24T07:33:42;12.90;99.90
13164;DHT22;6647;53.688;10.746;2023-04-24T07:35:03;12.90;99.90
13164;DHT22;6647;53.688;10.746;2023-04-24T07:36:24;12.90;99.90
13164;DHT22;6647;53.688;10.746;2023-04-24T07:37:46;12.90;99.90
13164;DHT22;6647;53.688;10.746;2023-04-24T07:39:07;12.90;99.90
13164;DHT22;6647;53.688;10.746;2023-04-24T07:40:29;12.90;99.90
13164;DHT22;6647;53.688;10.746;2023-04-24T07:41:50;12.90;99.90
13164;DHT22;6647;53.688;10.746;2023-04-24T07:43:10;12.90;99.90
13164;DHT22;6647;53.688;10.746;2023-04-24T07:44:31;13.00;99.90
13164;DHT22;6647;53.688;10.746;2023-04-24T07:45:53;13.00;99.90
13164;DHT22;6647;53.688;10.746;2023-04-24T07:47:14;13.00;99.90
13164;DHT22;6647;53.688;10.746;2023-04-24T07:48:38;13.00;99.90
13164;DHT22;6647;53.688;10.746;2023-04-24T07:49:59;13.10;99.90
13164;DHT22;6647;53.688;10.746;2023-04-24T07:51:20;13.10;99.90
13164;DHT22;6647;53.688;10.746;2023-04-24T07:52:41;13.10;99.90
13164;DHT22;6647;53.688;10.746;2023-04-24T07:54:01;13.20;99.90
13164;DHT22;6647;53.688;10.746;2023-04-24T07:55:23;13.20;99.90
13164;DHT22;6647;53.688;10.746;2023-04-24T07:56:44;13.20;99.90
13164;DHT22;6647;53.688;10.746;2023-04-24T07:58:05;13.20;99.90
13164;DHT22;6647;53.688;10.746;2023-04-24T07:59:26;13.20;99.90
13164;DHT22;6647;53.688;10.746;2023-04-24T08:00:47;13.20;99.90
13164;DHT22;6647;53.688;10.746;2023-04-24T08:02:08;13.20;99.90
13164;DHT22;6647;53.688;10.746;2023-04-24T08:03:30;13.20;99.90
13164;DHT22;6647;53.688;10.746;2023-04-24T08:04:50;13.20;99.90
13164;DHT22;6647;53.688;10.746;2023-04-24T08:06:12;13.20;99.90
13164;DHT22;6647;53.688;10.746;2023-04-24T08:07:33;13.20;99.90
13164;DHT22;6647;53.688;10.746;2023-04-24T08:08:55;13.20;99.90
13164;DHT22;6647;53.688;10.746;2023-04-24T08:10:16;13.20;99.90
13164;DHT22;6647;53.688;10.746;2023-04-24T08:11:36;13.20;99.90
13164;DHT22;6647;53.688;10.746;2023-04-24T08:12:57;13.30;99.90
13164;DHT22;6647;53.688;10.746;2023-04-24T08:14:18;13.30;99.90
13164;DHT22;6647;53.688;10.746;2023-04-24T08:15:39;13.30;99.90
13164;DHT22;6647;53.688;10.746;2023-04-24T08:17:00;13.30;99.90
13164;DHT22;6647;53.688;10.746;2023-04-24T08:18:22;13.30;99.90
13164;DHT22;6647;53.688;10.746;2023-04-24T08:19:43;13.30;99.90
13164;DHT22;6647;53.688;10.746;2023-04-24T08:21:08;13.30;99.90
13164;DHT22;6647;53.688;10.746;2023-04-24T08:22:29;13.30;99.90
13164;DHT22;6647;53.688;10.746;2023-04-24T08:23:50;13.40;99.90
13164;DHT22;6647;53.688;10.746;2023-04-24T08:25:11;13.40;99.90
13164;DHT22;6647;53.688;10.746;2023-04-24T08:26:32;13.40;99.90
13164;DHT22;6647;53.688;10.746;2023-04-24T08:27:53;13.40;99.90
13164;DHT22;6647;53.688;10.746;2023-04-24T08:29:13;13.40;99.90
13164;DHT22;6647;53.688;10.746;2023-04-24T08:30:34;13.50;99.90
13164;DHT22;6647;53.688;10.746;2023-04-24T08:31:55;13.50;99.90